sensor_id;sensor_type;location;lat;lon;timestamp;P1;durP1;ratioP1;P2;durP2;ratioP2
22778;SDS011;11556;51.194;3.800;2024-02-26T00:00:35;1.80;;;1.70;;
22778;SDS011;11556;51.194;3.800;2024-02-26T00:03:01;3.53;;;1.70;;
22778;SDS011;11556;51.194;3.800;2024-02-26T00:05:26;3.05;;;2.10;;
22778;SDS011;11556;51.194;3.800;2024-02-26T00:07:52;2.78;;;1.85;;
22778;SDS011;11556;51.194;3.800;2024-02-26T00:10:18;3.72;;;2.20;;
22778;SDS011;11556;51.194;3.800;2024-02-26T00:12:43;4.60;;;2.08;;
22778;SDS011;11556;51.194;3.800;2024-02-26T00:15:09;3.25;;;2.25;;
22778;SDS011;11556;51.194;3.800;2024-02-26T00:17:35;3.63;;;2.33;;
22778;SDS011;11556;51.194;3.800;2024-02-26T00:20:04;6.60;;;2.72;;
22778;SDS011;11556;51.194;3.800;2024-02-26T00:22:33;5.70;;;2.90;;
22778;SDS011;11556;51.194;3.800;2024-02-26T00:24:59;3.72;;;2.78;;
22778;SDS011;11556;51.194;3.800;2024-02-26T00:27:25;6.40;;;3.65;;
22778;SDS011;11556;51.194;3.800;2024-02-26T00:29:50;5.95;;;3.67;;
22778;SDS011;11556;51.194;3.800;2024-02-26T00:32:16;6.47;;;4.30;;
22778;SDS011;11556;51.194;3.800;2024-02-26T00:34:42;6.13;;;3.60;;
22778;SDS011;11556;51.194;3.800;2024-02-26T00:37:07;4.22;;;3.47;;
22778;SDS011;11556;51.194;3.800;2024-02-26T00:39:33;6.75;;;3.92;;
22778;SDS011;11556;51.194;3.800;2024-02-26T00:41:58;6.03;;;3.63;;
22778;SDS011;11556;51.194;3.800;2024-02-26T00:44:24;5.13;;;3.58;;
22778;SDS011;11556;51.194;3.800;2024-02-26T00:46:50;5.10;;;3.85;;
22778;SDS011;11556;51.194;3.800;2024-02-26T00:49:15;6.65;;;3.88;;
22778;SDS011;11556;51.194;3.800;2024-02-26T00:51:41;5.40;;;3.63;;
22778;SDS011;11556;51.194;3.800;2024-02-26T00:54:06;5.55;;;3.67;;
22778;SDS011;11556;51.194;3.800;2024-02-26T00:56:32;6.07;;;3.97;;
22778;SDS011;11556;51.194;3.800;2024-02-26T00:58:58;4.93;;;3.70;;
22778;SDS011;11556;51.194;3.800;2024-02-26T01:01:23;6.28;;;3.90;;
22778;SDS011;11556;51.194;3.800;2024-02-26T01:03:49;7.20;;;3.90;;
22778;SDS011;11556;51.194;3.800;2024-02-26T01:06:15;6.78;;;3.70;;
22778;SDS011;11556;51.194;3.800;2024-02-26T01:08:40;4.60;;;3.33;;
22778;SDS011;11556;51.194;3.800;2024-02-26T01:11:06;5.40;;;3.17;;
22778;SDS011;11556;51.194;3.800;2024-02-26T01:13:32;5.47;;;3.85;;
22778;SDS011;11556;51.194;3.800;2024-02-26T01:15:58;4.90;;;3.30;;
22778;SDS011;11556;51.194;3.800;2024-02-26T01:18:23;4.50;;;3.35;;
22778;SDS011;11556;51.194;3.800;2024-02-26T01:20:49;3.65;;;3.00;;
22778;SDS011;11556;51.194;3.800;2024-02-26T01:23:15;7.32;;;3.30;;
22778;SDS011;11556;51.194;3.800;2024-02-26T01:25:40;4.63;;;3.10;;
22778;SDS011;11556;51.194;3.800;2024-02-26T01:28:07;6.43;;;3.78;;
22778;SDS011;11556;51.194;3.800;2024-02-26T01:30:33;5.18;;;3.88;;
22778;SDS011;11556;51.194;3.800;2024-02-26T01:32:58;5.60;;;3.83;;
22778;SDS011;11556;51.194;3.800;2024-02-26T01:35:24;7.63;;;4.30;;
22778;SDS011;11556;51.194;3.800;2024-02-26T01:37:50;6.50;;;4.07;;
22778;SDS011;11556;51.194;3.800;2024-02-26T01:40:15;4.20;;;3.80;;
22778;SDS011;11556;51.194;3.800;2024-02-26T01:42:45;6.60;;;4.07;;
22778;SDS011;11556;51.194;3.800;2024-02-26T01:45:15;5.85;;;4.45;;
22778;SDS011;11556;51.194;3.800;2024-02-26T01:47:46;6.22;;;4.40;;
22778;SDS011;11556;51.194;3.800;2024-02-26T01:50:14;7.45;;;4.15;;
22778;SDS011;11556;51.194;3.800;2024-02-26T01:52:40;6.60;;;4.47;;
22778;SDS011;11556;51.194;3.800;2024-02-26T01:55:06;9.20;;;4.88;;
22778;SDS011;11556;51.194;3.800;2024-02-26T01:57:33;7.07;;;4.57;;
22778;SDS011;11556;51.194;3.800;2024-02-26T01:59:59;4.55;;;3.67;;
22778;SDS011;11556;51.194;3.800;2024-02-26T02:02:25;5.63;;;4.20;;
22778;SDS011;11556;51.194;3.800;2024-02-26T02:04:50;6.07;;;3.95;;
22778;SDS011;11556;51.194;3.800;2024-02-26T02:07:17;5.63;;;4.63;;
22778;SDS011;11556;51.194;3.800;2024-02-26T02:09:44;7.57;;;4.22;;
22778;SDS011;11556;51.194;3.800;2024-02-26T02:12:10;8.80;;;5.07;;
22778;SDS011;11556;51.194;3.800;2024-02-26T02:14:36;6.55;;;4.85;;
22778;SDS011;11556;51.194;3.800;2024-02-26T02:17:02;8.60;;;5.13;;
22778;SDS011;11556;51.194;3.800;2024-02-26T02:19:27;7.70;;;5.88;;
22778;SDS011;11556;51.194;3.800;2024-02-26T02:21:53;6.72;;;5.40;;
22778;SDS011;11556;51.194;3.800;2024-02-26T02:24:18;8.55;;;5.70;;
22778;SDS011;11556;51.194;3.800;2024-02-26T02:26:44;11.00;;;5.90;;
22778;SDS011;11556;51.194;3.800;2024-02-26T02:29:10;7.68;;;5.80;;
22778;SDS011;11556;51.194;3.800;2024-02-26T02:31:37;7.70;;;5.85;;
22778;SDS011;11556;51.194;3.800;2024-02-26T02:34:03;8.48;;;6.15;;
22778;SDS011;11556;51.194;3.800;2024-02-26T02:36:28;8.75;;;6.38;;
22778;SDS011;11556;51.194;3.800;2024-02-26T02:38:54;8.93;;;5.38;;
22778;SDS011;11556;51.194;3.800;2024-02-26T02:41:19;8.70;;;5.63;;
22778;SDS011;11556;51.194;3.800;2024-02-26T02:43:45;8.55;;;5.60;;
22778;SDS011;11556;51.194;3.800;2024-02-26T02:46:11;7.22;;;5.93;;
22778;SDS011;11556;51.194;3.800;2024-02-26T02:48:37;8.90;;;6.30;;
22778;SDS011;11556;51.194;3.800;2024-02-26T02:51:03;10.40;;;6.90;;
22778;SDS011;11556;51.194;3.800;2024-02-26T02:53:29;10.48;;;7.43;;
22778;SDS011;11556;51.194;3.800;2024-02-26T02:55:55;11.60;;;8.35;;
22778;SDS011;11556;51.194;3.800;2024-02-26T02:58:20;12.27;;;8.43;;
22778;SDS011;11556;51.194;3.800;2024-02-26T03:00:46;17.15;;;9.60;;
22778;SDS011;11556;51.194;3.800;2024-02-26T03:03:11;15.00;;;10.30;;
22778;SDS011;11556;51.194;3.800;2024-02-26T03:05:37;16.40;;;12.02;;
22778;SDS011;11556;51.194;3.800;2024-02-26T03:08:03;18.15;;;11.93;;
22778;SDS011;11556;51.194;3.800;2024-02-26T03:10:29;19.17;;;11.57;;
22778;SDS011;11556;51.194;3.800;2024-02-26T03:12:54;19.15;;;12.80;;
22778;SDS011;11556;51.194;3.800;2024-02-26T03:15:21;16.48;;;10.80;;
22778;SDS011;11556;51.194;3.800;2024-02-26T03:17:47;21.10;;;13.77;;
22778;SDS011;11556;51.194;3.800;2024-02-26T03:20:13;19.42;;;13.55;;
22778;SDS011;11556;51.194;3.800;2024-02-26T03:22:39;18.55;;;12.73;;
22778;SDS011;11556;51.194;3.800;2024-02-26T03:25:05;28.67;;;14.88;;
22778;SDS011;11556;51.194;3.800;2024-02-26T03:27:31;23.42;;;15.60;;
22778;SDS011;11556;51.194;3.800;2024-02-26T03:29:57;23.25;;;13.82;;
22778;SDS011;11556;51.194;3.800;2024-02-26T03:32:23;22.35;;;14.00;;
22778;SDS011;11556;51.194;3.800;2024-02-26T03:34:48;21.20;;;14.13;;
22778;SDS011;11556;51.194;3.800;2024-02-26T03:37:14;19.63;;;14.13;;
22778;SDS011;11556;51.194;3.800;2024-02-26T03:39:40;20.35;;;13.90;;
22778;SDS011;11556;51.194;3.800;2024-02-26T03:42:05;22.40;;;14.75;;
22778;SDS011;11556;51.194;3.800;2024-02-26T03:44:31;20.38;;;13.60;;
22778;SDS011;11556;51.194;3.800;2024-02-26T03:46:57;24.08;;;14.27;;
22778;SDS011;11556;51.194;3.800;2024-02-26T03:49:22;19.38;;;13.52;;
22778;SDS011;11556;51.194;3.800;2024-02-26T03:51:48;23.02;;;14.73;;
22778;SDS011;11556;51.194;3.800;2024-02-26T03:54:14;20.75;;;13.18;;
22778;SDS011;11556;51.194;3.800;2024-02-26T03:56:40;24.17;;;13.73;;
22778;SDS011;11556;51.194;3.800;2024-02-26T03:59:05;20.50;;;14.60;;
22778;SDS011;11556;51.194;3.800;2024-02-26T04:01:31;19.95;;;13.43;;
22778;SDS011;11556;51.194;3.800;2024-02-26T04:03:57;18.98;;;12.68;;
22778;SDS011;11556;51.194;3.800;2024-02-26T04:06:22;20.67;;;13.13;;
22778;SDS011;11556;51.194;3.800;2024-02-26T04:08:48;17.75;;;12.65;;
22778;SDS011;11556;51.194;3.800;2024-02-26T04:11:14;19.58;;;12.90;;
22778;SDS011;11556;51.194;3.800;2024-02-26T04:13:42;17.33;;;12.35;;
22778;SDS011;11556;51.194;3.800;2024-02-26T04:16:11;17.50;;;12.07;;
22778;SDS011;11556;51.194;3.800;2024-02-26T04:18:37;19.63;;;11.77;;
22778;SDS011;11556;51.194;3.800;2024-02-26T04:21:03;15.10;;;10.00;;
22778;SDS011;11556;51.194;3.800;2024-02-26T04:23:30;14.68;;;9.93;;
22778;SDS011;11556;51.194;3.800;2024-02-26T04:25:56;17.38;;;10.02;;
22778;SDS011;11556;51.194;3.800;2024-02-26T04:28:21;14.77;;;9.43;;
22778;SDS011;11556;51.194;3.800;2024-02-26T04:30:50;14.35;;;10.60;;
22778;SDS011;11556;51.194;3.800;2024-02-26T04:33:16;14.02;;;9.55;;
22778;SDS011;11556;51.194;3.800;2024-02-26T04:35:41;13.85;;;8.80;;
22778;SDS011;11556;51.194;3.800;2024-02-26T04:38:07;14.52;;;8.65;;
22778;SDS011;11556;51.194;3.800;2024-02-26T04:40:33;14.02;;;7.80;;
22778;SDS011;11556;51.194;3.800;2024-02-26T04:42:59;10.80;;;7.10;;
22778;SDS011;11556;51.194;3.800;2024-02-26T04:45:24;12.80;;;8.45;;
22778;SDS011;11556;51.194;3.800;2024-02-26T04:47:50;12.63;;;8.25;;
22778;SDS011;11556;51.194;3.800;2024-02-26T04:50:15;12.88;;;7.53;;
22778;SDS011;11556;51.194;3.800;2024-02-26T04:52:41;9.10;;;6.60;;
22778;SDS011;11556;51.194;3.800;2024-02-26T04:55:07;13.50;;;8.10;;
22778;SDS011;11556;51.194;3.800;2024-02-26T04:57:33;11.07;;;7.50;;
22778;SDS011;11556;51.194;3.800;2024-02-26T04:59:59;10.98;;;7.43;;
22778;SDS011;11556;51.194;3.800;2024-02-26T05:02:24;13.05;;;8.18;;
22778;SDS011;11556;51.194;3.800;2024-02-26T05:04:50;13.30;;;8.73;;
22778;SDS011;11556;51.194;3.800;2024-02-26T05:07:15;13.02;;;8.60;;
22778;SDS011;11556;51.194;3.800;2024-02-26T05:09:44;13.35;;;7.00;;
22778;SDS011;11556;51.194;3.800;2024-02-26T05:12:10;11.52;;;6.90;;
22778;SDS011;11556;51.194;3.800;2024-02-26T05:14:35;14.15;;;8.80;;
22778;SDS011;11556;51.194;3.800;2024-02-26T05:17:01;13.52;;;8.60;;
22778;SDS011;11556;51.194;3.800;2024-02-26T05:19:26;13.80;;;7.90;;
22778;SDS011;11556;51.194;3.800;2024-02-26T05:21:52;15.88;;;9.10;;
22778;SDS011;11556;51.194;3.800;2024-02-26T05:24:17;15.15;;;8.52;;
22778;SDS011;11556;51.194;3.800;2024-02-26T05:26:47;16.77;;;9.10;;
22778;SDS011;11556;51.194;3.800;2024-02-26T05:29:13;14.23;;;9.48;;
22778;SDS011;11556;51.194;3.800;2024-02-26T05:31:38;18.90;;;10.30;;
22778;SDS011;11556;51.194;3.800;2024-02-26T05:34:04;19.95;;;11.45;;
22778;SDS011;11556;51.194;3.800;2024-02-26T05:36:30;18.85;;;11.88;;
22778;SDS011;11556;51.194;3.800;2024-02-26T05:38:58;20.58;;;11.55;;
22778;SDS011;11556;51.194;3.800;2024-02-26T05:41:25;16.98;;;9.98;;
22778;SDS011;11556;51.194;3.800;2024-02-26T05:43:54;17.33;;;9.68;;
22778;SDS011;11556;51.194;3.800;2024-02-26T05:46:20;17.35;;;11.40;;
22778;SDS011;11556;51.194;3.800;2024-02-26T05:48:46;16.33;;;11.85;;
22778;SDS011;11556;51.194;3.800;2024-02-26T05:51:14;15.35;;;9.73;;
22778;SDS011;11556;51.194;3.800;2024-02-26T05:53:40;20.70;;;12.45;;
22778;SDS011;11556;51.194;3.800;2024-02-26T05:56:06;19.15;;;12.50;;
22778;SDS011;11556;51.194;3.800;2024-02-26T05:58:32;20.38;;;12.32;;
22778;SDS011;11556;51.194;3.800;2024-02-26T06:00:58;21.00;;;10.82;;
22778;SDS011;11556;51.194;3.800;2024-02-26T06:03:25;19.75;;;12.60;;
22778;SDS011;11556;51.194;3.800;2024-02-26T06:05:51;22.30;;;13.40;;
22778;SDS011;11556;51.194;3.800;2024-02-26T06:08:16;22.67;;;12.65;;
22778;SDS011;11556;51.194;3.800;2024-02-26T06:10:42;21.95;;;11.48;;
22778;SDS011;11556;51.194;3.800;2024-02-26T06:13:07;19.85;;;12.60;;
22778;SDS011;11556;51.194;3.800;2024-02-26T06:15:33;22.08;;;12.48;;
22778;SDS011;11556;51.194;3.800;2024-02-26T06:17:59;18.63;;;12.13;;
22778;SDS011;11556;51.194;3.800;2024-02-26T06:20:24;20.95;;;12.35;;
22778;SDS011;11556;51.194;3.800;2024-02-26T06:22:50;17.60;;;11.40;;
22778;SDS011;11556;51.194;3.800;2024-02-26T06:25:16;19.48;;;12.18;;
22778;SDS011;11556;51.194;3.800;2024-02-26T06:27:42;17.48;;;11.93;;
22778;SDS011;11556;51.194;3.800;2024-02-26T06:30:07;20.15;;;12.82;;
22778;SDS011;11556;51.194;3.800;2024-02-26T06:32:35;21.13;;;13.38;;
22778;SDS011;11556;51.194;3.800;2024-02-26T06:35:02;21.67;;;11.98;;
22778;SDS011;11556;51.194;3.800;2024-02-26T06:37:31;19.20;;;11.75;;
22778;SDS011;11556;51.194;3.800;2024-02-26T06:39:58;21.05;;;12.43;;
22778;SDS011;11556;51.194;3.800;2024-02-26T06:42:24;17.23;;;9.77;;
22778;SDS011;11556;51.194;3.800;2024-02-26T06:44:50;18.10;;;9.77;;
22778;SDS011;11556;51.194;3.800;2024-02-26T06:47:15;21.83;;;12.40;;
22778;SDS011;11556;51.194;3.800;2024-02-26T06:49:41;19.13;;;11.13;;
22778;SDS011;11556;51.194;3.800;2024-02-26T06:52:07;19.33;;;11.45;;
22778;SDS011;11556;51.194;3.800;2024-02-26T06:54:32;17.02;;;9.52;;
22778;SDS011;11556;51.194;3.800;2024-02-26T06:56:58;13.27;;;8.35;;
22778;SDS011;11556;51.194;3.800;2024-02-26T06:59:24;18.85;;;11.50;;
22778;SDS011;11556;51.194;3.800;2024-02-26T07:01:50;18.63;;;11.02;;
22778;SDS011;11556;51.194;3.800;2024-02-26T07:04:15;14.00;;;8.15;;
22778;SDS011;11556;51.194;3.800;2024-02-26T07:06:41;18.60;;;10.60;;
22778;SDS011;11556;51.194;3.800;2024-02-26T07:09:08;20.20;;;10.80;;
22778;SDS011;11556;51.194;3.800;2024-02-26T07:11:33;17.23;;;10.60;;
22778;SDS011;11556;51.194;3.800;2024-02-26T07:13:59;13.90;;;8.27;;
22778;SDS011;11556;51.194;3.800;2024-02-26T07:16:26;17.08;;;11.40;;
22778;SDS011;11556;51.194;3.800;2024-02-26T07:18:52;23.23;;;11.45;;
22778;SDS011;11556;51.194;3.800;2024-02-26T07:21:17;16.63;;;9.65;;
22778;SDS011;11556;51.194;3.800;2024-02-26T07:23:43;19.98;;;10.55;;
22778;SDS011;11556;51.194;3.800;2024-02-26T07:26:09;11.77;;;7.00;;
22778;SDS011;11556;51.194;3.800;2024-02-26T07:28:36;20.08;;;10.90;;
22778;SDS011;11556;51.194;3.800;2024-02-26T07:31:02;13.35;;;6.32;;
22778;SDS011;11556;51.194;3.800;2024-02-26T07:33:28;13.93;;;8.82;;
22778;SDS011;11556;51.194;3.800;2024-02-26T07:35:54;13.30;;;7.65;;
22778;SDS011;11556;51.194;3.800;2024-02-26T07:38:20;14.40;;;8.73;;
22778;SDS011;11556;51.194;3.800;2024-02-26T07:40:45;12.80;;;6.78;;
22778;SDS011;11556;51.194;3.800;2024-02-26T07:43:11;15.38;;;8.00;;
22778;SDS011;11556;51.194;3.800;2024-02-26T07:45:37;13.75;;;8.98;;
22778;SDS011;11556;51.194;3.800;2024-02-26T07:48:03;16.55;;;8.60;;
22778;SDS011;11556;51.194;3.800;2024-02-26T07:50:28;12.90;;;7.07;;
22778;SDS011;11556;51.194;3.800;2024-02-26T07:52:54;13.10;;;7.93;;
22778;SDS011;11556;51.194;3.800;2024-02-26T07:55:20;18.65;;;8.70;;
22778;SDS011;11556;51.194;3.800;2024-02-26T07:57:46;16.58;;;8.80;;
22778;SDS011;11556;51.194;3.800;2024-02-26T08:00:11;13.65;;;8.20;;
22778;SDS011;11556;51.194;3.800;2024-02-26T08:02:41;17.70;;;10.50;;
22778;SDS011;11556;51.194;3.800;2024-02-26T08:05:08;17.13;;;10.30;;
22778;SDS011;11556;51.194;3.800;2024-02-26T08:07:34;21.45;;;12.57;;
22778;SDS011;11556;51.194;3.800;2024-02-26T08:09:59;15.63;;;10.70;;
22778;SDS011;11556;51.194;3.800;2024-02-26T08:12:25;17.67;;;10.45;;
22778;SDS011;11556;51.194;3.800;2024-02-26T08:14:51;20.17;;;10.75;;
22778;SDS011;11556;51.194;3.800;2024-02-26T08:17:16;17.65;;;8.40;;
22778;SDS011;11556;51.194;3.800;2024-02-26T08:19:42;14.82;;;9.85;;
22778;SDS011;11556;51.194;3.800;2024-02-26T08:22:07;16.50;;;9.45;;
22778;SDS011;11556;51.194;3.800;2024-02-26T08:24:35;14.40;;;9.55;;
22778;SDS011;11556;51.194;3.800;2024-02-26T08:27:00;16.27;;;9.15;;
22778;SDS011;11556;51.194;3.800;2024-02-26T08:29:26;15.25;;;9.38;;
22778;SDS011;11556;51.194;3.800;2024-02-26T08:31:52;15.00;;;9.52;;
22778;SDS011;11556;51.194;3.800;2024-02-26T08:34:17;18.60;;;10.35;;
22778;SDS011;11556;51.194;3.800;2024-02-26T08:36:43;14.75;;;8.95;;
22778;SDS011;11556;51.194;3.800;2024-02-26T08:39:11;15.95;;;9.43;;
22778;SDS011;11556;51.194;3.800;2024-02-26T08:41:38;17.40;;;9.43;;
22778;SDS011;11556;51.194;3.800;2024-02-26T08:44:04;14.05;;;8.82;;
22778;SDS011;11556;51.194;3.800;2024-02-26T08:46:30;16.30;;;10.00;;
22778;SDS011;11556;51.194;3.800;2024-02-26T08:48:56;15.93;;;9.23;;
22778;SDS011;11556;51.194;3.800;2024-02-26T08:51:22;16.02;;;9.63;;
22778;SDS011;11556;51.194;3.800;2024-02-26T08:53:47;19.05;;;10.88;;
22778;SDS011;11556;51.194;3.800;2024-02-26T08:56:13;17.15;;;10.80;;
22778;SDS011;11556;51.194;3.800;2024-02-26T08:58:42;23.80;;;12.27;;
22778;SDS011;11556;51.194;3.800;2024-02-26T09:01:13;19.73;;;12.10;;
22778;SDS011;11556;51.194;3.800;2024-02-26T09:03:39;20.92;;;12.00;;
22778;SDS011;11556;51.194;3.800;2024-02-26T09:06:05;23.70;;;12.40;;
22778;SDS011;11556;51.194;3.800;2024-02-26T09:08:31;22.77;;;12.48;;
22778;SDS011;11556;51.194;3.800;2024-02-26T09:10:57;24.73;;;12.80;;
22778;SDS011;11556;51.194;3.800;2024-02-26T09:13:23;25.70;;;13.07;;
22778;SDS011;11556;51.194;3.800;2024-02-26T09:15:49;25.27;;;13.43;;
22778;SDS011;11556;51.194;3.800;2024-02-26T09:18:14;22.17;;;13.45;;
22778;SDS011;11556;51.194;3.800;2024-02-26T09:20:40;23.45;;;13.73;;
22778;SDS011;11556;51.194;3.800;2024-02-26T09:23:06;28.00;;;14.82;;
22778;SDS011;11556;51.194;3.800;2024-02-26T09:25:32;25.27;;;14.38;;
22778;SDS011;11556;51.194;3.800;2024-02-26T09:27:58;26.10;;;14.35;;
22778;SDS011;11556;51.194;3.800;2024-02-26T09:30:24;28.73;;;14.38;;
22778;SDS011;11556;51.194;3.800;2024-02-26T09:32:50;28.80;;;15.65;;
22778;SDS011;11556;51.194;3.800;2024-02-26T09:35:15;29.08;;;13.50;;
22778;SDS011;11556;51.194;3.800;2024-02-26T09:37:41;27.55;;;14.18;;
22778;SDS011;11556;51.194;3.800;2024-02-26T09:40:09;31.70;;;14.98;;
22778;SDS011;11556;51.194;3.800;2024-02-26T09:42:37;27.33;;;15.40;;
22778;SDS011;11556;51.194;3.800;2024-02-26T09:45:07;29.02;;;14.50;;
22778;SDS011;11556;51.194;3.800;2024-02-26T09:47:37;27.70;;;14.40;;
22778;SDS011;11556;51.194;3.800;2024-02-26T09:50:04;30.00;;;14.32;;
22778;SDS011;11556;51.194;3.800;2024-02-26T09:52:34;32.20;;;15.68;;
22778;SDS011;11556;51.194;3.800;2024-02-26T09:55:02;30.42;;;15.40;;
22778;SDS011;11556;51.194;3.800;2024-02-26T09:57:29;31.92;;;15.68;;
22778;SDS011;11556;51.194;3.800;2024-02-26T09:59:58;32.13;;;14.13;;
22778;SDS011;11556;51.194;3.800;2024-02-26T10:02:28;30.98;;;13.73;;
22778;SDS011;11556;51.194;3.800;2024-02-26T10:04:55;36.60;;;16.08;;
22778;SDS011;11556;51.194;3.800;2024-02-26T10:07:22;37.55;;;17.02;;
22778;SDS011;11556;51.194;3.800;2024-02-26T10:09:48;37.38;;;17.25;;
22778;SDS011;11556;51.194;3.800;2024-02-26T10:12:15;39.30;;;16.92;;
22778;SDS011;11556;51.194;3.800;2024-02-26T10:14:42;39.92;;;18.02;;
22778;SDS011;11556;51.194;3.800;2024-02-26T10:17:07;42.90;;;19.08;;
22778;SDS011;11556;51.194;3.800;2024-02-26T10:19:34;41.85;;;18.17;;
22778;SDS011;11556;51.194;3.800;2024-02-26T10:22:00;43.67;;;19.35;;
22778;SDS011;11556;51.194;3.800;2024-02-26T10:24:26;42.47;;;20.00;;
22778;SDS011;11556;51.194;3.800;2024-02-26T10:26:53;45.00;;;19.70;;
22778;SDS011;11556;51.194;3.800;2024-02-26T10:29:21;50.08;;;21.73;;
22778;SDS011;11556;51.194;3.800;2024-02-26T10:31:47;42.95;;;19.13;;
22778;SDS011;11556;51.194;3.800;2024-02-26T10:34:14;46.22;;;20.08;;
22778;SDS011;11556;51.194;3.800;2024-02-26T10:36:40;45.55;;;19.98;;
22778;SDS011;11556;51.194;3.800;2024-02-26T10:39:06;43.83;;;21.23;;
22778;SDS011;11556;51.194;3.800;2024-02-26T10:41:35;48.33;;;21.15;;
22778;SDS011;11556;51.194;3.800;2024-02-26T10:44:01;49.85;;;22.80;;
22778;SDS011;11556;51.194;3.800;2024-02-26T10:46:27;44.75;;;20.42;;
22778;SDS011;11556;51.194;3.800;2024-02-26T10:48:53;47.92;;;21.80;;
22778;SDS011;11556;51.194;3.800;2024-02-26T10:51:26;47.05;;;21.25;;
22778;SDS011;11556;51.194;3.800;2024-02-26T10:53:55;48.58;;;22.65;;
22778;SDS011;11556;51.194;3.800;2024-02-26T10:56:26;42.33;;;18.92;;
22778;SDS011;11556;51.194;3.800;2024-02-26T10:58:53;44.17;;;20.70;;
22778;SDS011;11556;51.194;3.800;2024-02-26T11:01:20;44.10;;;21.85;;
22778;SDS011;11556;51.194;3.800;2024-02-26T11:03:50;38.70;;;20.45;;
22778;SDS011;11556;51.194;3.800;2024-02-26T11:06:17;40.72;;;20.75;;
22778;SDS011;11556;51.194;3.800;2024-02-26T11:08:49;39.83;;;18.70;;
22778;SDS011;11556;51.194;3.800;2024-02-26T11:11:19;38.28;;;19.67;;
22778;SDS011;11556;51.194;3.800;2024-02-26T11:13:46;38.55;;;18.80;;
22778;SDS011;11556;51.194;3.800;2024-02-26T11:16:19;38.28;;;19.15;;
22778;SDS011;11556;51.194;3.800;2024-02-26T11:18:47;37.72;;;19.95;;
22778;SDS011;11556;51.194;3.800;2024-02-26T11:21:16;36.75;;;18.10;;
22778;SDS011;11556;51.194;3.800;2024-02-26T11:23:52;32.05;;;17.38;;
22778;SDS011;11556;51.194;3.800;2024-02-26T11:26:19;30.77;;;14.65;;
22778;SDS011;11556;51.194;3.800;2024-02-26T11:28:47;33.08;;;16.77;;
22778;SDS011;11556;51.194;3.800;2024-02-26T11:31:14;31.35;;;16.42;;
22778;SDS011;11556;51.194;3.800;2024-02-26T11:33:40;30.85;;;16.27;;
22778;SDS011;11556;51.194;3.800;2024-02-26T11:36:09;35.85;;;16.77;;
22778;SDS011;11556;51.194;3.800;2024-02-26T11:38:36;27.38;;;14.65;;
22778;SDS011;11556;51.194;3.800;2024-02-26T11:41:03;29.73;;;15.18;;
22778;SDS011;11556;51.194;3.800;2024-02-26T11:46:27;31.00;;;14.35;;
22778;SDS011;11556;51.194;3.800;2024-02-26T11:51:27;26.40;;;13.35;;
22778;SDS011;11556;51.194;3.800;2024-02-26T11:53:57;25.08;;;13.85;;
22778;SDS011;11556;51.194;3.800;2024-02-26T11:56:24;24.08;;;13.45;;
22778;SDS011;11556;51.194;3.800;2024-02-26T11:59:01;21.65;;;13.60;;
22778;SDS011;11556;51.194;3.800;2024-02-26T12:06:45;20.10;;;11.65;;
22778;SDS011;11556;51.194;3.800;2024-02-26T12:12:03;19.10;;;11.32;;
22778;SDS011;11556;51.194;3.800;2024-02-26T12:14:38;16.60;;;10.73;;
22778;SDS011;11556;51.194;3.800;2024-02-26T12:17:05;17.58;;;10.35;;
22778;SDS011;11556;51.194;3.800;2024-02-26T12:19:33;16.27;;;10.05;;
22778;SDS011;11556;51.194;3.800;2024-02-26T12:22:02;15.52;;;9.88;;
22778;SDS011;11556;51.194;3.800;2024-02-26T12:24:27;15.73;;;9.57;;
22778;SDS011;11556;51.194;3.800;2024-02-26T12:26:53;17.10;;;10.02;;
22778;SDS011;11556;51.194;3.800;2024-02-26T12:29:19;15.68;;;9.05;;
22778;SDS011;11556;51.194;3.800;2024-02-26T12:31:44;16.83;;;9.60;;
22778;SDS011;11556;51.194;3.800;2024-02-26T12:34:10;21.67;;;10.30;;
22778;SDS011;11556;51.194;3.800;2024-02-26T12:36:37;18.00;;;9.68;;
22778;SDS011;11556;51.194;3.800;2024-02-26T12:39:03;16.55;;;9.95;;
22778;SDS011;11556;51.194;3.800;2024-02-26T12:41:34;15.13;;;9.10;;
22778;SDS011;11556;51.194;3.800;2024-02-26T12:44:00;18.42;;;9.85;;
22778;SDS011;11556;51.194;3.800;2024-02-26T12:46:26;16.67;;;9.65;;
22778;SDS011;11556;51.194;3.800;2024-02-26T12:48:52;19.20;;;9.88;;
22778;SDS011;11556;51.194;3.800;2024-02-26T12:51:21;16.83;;;9.32;;
22778;SDS011;11556;51.194;3.800;2024-02-26T12:53:47;18.10;;;9.88;;
22778;SDS011;11556;51.194;3.800;2024-02-26T12:56:15;19.23;;;9.05;;
22778;SDS011;11556;51.194;3.800;2024-02-26T12:58:41;14.35;;;9.23;;
22778;SDS011;11556;51.194;3.800;2024-02-26T13:01:07;16.73;;;9.30;;
22778;SDS011;11556;51.194;3.800;2024-02-26T13:03:39;17.33;;;10.18;;
22778;SDS011;11556;51.194;3.800;2024-02-26T13:06:06;16.77;;;9.98;;
22778;SDS011;11556;51.194;3.800;2024-02-26T13:08:32;15.00;;;9.88;;
22778;SDS011;11556;51.194;3.800;2024-02-26T13:10:58;17.90;;;10.82;;
22778;SDS011;11556;51.194;3.800;2024-02-26T13:13:24;16.88;;;9.60;;
22778;SDS011;11556;51.194;3.800;2024-02-26T13:15:50;17.52;;;10.38;;
22778;SDS011;11556;51.194;3.800;2024-02-26T13:18:30;16.83;;;11.05;;
22778;SDS011;11556;51.194;3.800;2024-02-26T13:21:09;19.52;;;10.82;;
22778;SDS011;11556;51.194;3.800;2024-02-26T13:23:36;18.08;;;10.57;;
22778;SDS011;11556;51.194;3.800;2024-02-26T13:26:04;18.02;;;10.20;;
22778;SDS011;11556;51.194;3.800;2024-02-26T13:28:30;19.98;;;10.73;;
22778;SDS011;11556;51.194;3.800;2024-02-26T13:30:57;16.25;;;10.02;;
22778;SDS011;11556;51.194;3.800;2024-02-26T13:33:25;17.85;;;10.20;;
22778;SDS011;11556;51.194;3.800;2024-02-26T13:35:52;16.70;;;10.65;;
22778;SDS011;11556;51.194;3.800;2024-02-26T13:38:20;16.35;;;9.77;;
22778;SDS011;11556;51.194;3.800;2024-02-26T13:40:45;14.63;;;9.32;;
22778;SDS011;11556;51.194;3.800;2024-02-26T13:43:11;19.05;;;10.25;;
22778;SDS011;11556;51.194;3.800;2024-02-26T13:45:37;18.20;;;10.05;;
22778;SDS011;11556;51.194;3.800;2024-02-26T13:48:07;16.63;;;10.52;;
22778;SDS011;11556;51.194;3.800;2024-02-26T13:50:35;20.20;;;11.52;;
22778;SDS011;11556;51.194;3.800;2024-02-26T13:53:01;16.25;;;9.70;;
22778;SDS011;11556;51.194;3.800;2024-02-26T13:55:27;18.08;;;10.30;;
22778;SDS011;11556;51.194;3.800;2024-02-26T13:57:57;17.15;;;10.90;;
22778;SDS011;11556;51.194;3.800;2024-02-26T14:00:24;20.70;;;12.35;;
22778;SDS011;11556;51.194;3.800;2024-02-26T14:02:52;18.98;;;11.25;;
22778;SDS011;11556;51.194;3.800;2024-02-26T14:05:17;20.73;;;11.70;;
22778;SDS011;11556;51.194;3.800;2024-02-26T14:07:43;18.90;;;11.80;;
22778;SDS011;11556;51.194;3.800;2024-02-26T14:10:11;20.10;;;11.80;;
22778;SDS011;11556;51.194;3.800;2024-02-26T14:12:37;20.55;;;11.95;;
22778;SDS011;11556;51.194;3.800;2024-02-26T14:15:04;16.48;;;10.98;;
22778;SDS011;11556;51.194;3.800;2024-02-26T14:17:34;19.52;;;12.20;;
22778;SDS011;11556;51.194;3.800;2024-02-26T14:20:00;20.45;;;12.75;;
22778;SDS011;11556;51.194;3.800;2024-02-26T14:22:25;19.95;;;12.38;;
22778;SDS011;11556;51.194;3.800;2024-02-26T14:24:56;17.42;;;11.07;;
22778;SDS011;11556;51.194;3.800;2024-02-26T14:27:22;19.63;;;11.20;;
22778;SDS011;11556;51.194;3.800;2024-02-26T14:29:48;22.38;;;12.60;;
22778;SDS011;11556;51.194;3.800;2024-02-26T14:32:14;19.88;;;12.27;;
22778;SDS011;11556;51.194;3.800;2024-02-26T14:34:40;24.17;;;12.65;;
22778;SDS011;11556;51.194;3.800;2024-02-26T14:37:06;20.42;;;12.75;;
22778;SDS011;11556;51.194;3.800;2024-02-26T14:39:32;20.83;;;12.80;;